Time;durP1;ratioP1;P1;durP2;ratioP2;P2;SDS_P1;SDS_P2;PMS_P1;PMS_P2;Temp;Humidity;BMP_temperature;BMP_pressure;BME280_temperature;BME280_humidity;BME280_pressure;Samples;Min_cycle;Max_cycle;Signal;HPM_P1;HPM_P2
2023/11/19 00:01:23;;;;;;;6.05;3.67;;;;;;;4.81;93.93;98341.47;5088430;28;20073;-82
2023/11/19 00:03:49;;;;;;;4.03;2.65;;;;;;;5.07;92.20;98349.03;5089560;28;20118;-82
2023/11/19 00:06:14;;;;;;;3.30;2.92;;;;;;;5.26;91.60;98351.41;5058227;28;20031;-82
2023/11/19 00:08:40;;;;;;;3.58;3.28;;;;;;;4.68;94.55;98320.50;5072977;28;20031;-82
2023/11/19 00:11:05;;;;;;;6.55;4.00;;;;;;;4.86;94.49;98338.97;5087174;28;20104;-82
2023/11/19 00:13:30;;;;;;;4.30;3.35;;;;;;;4.90;94.44;98316.34;5081104;28;20031;-81
2023/11/19 00:15:56;;;;;;;3.45;3.15;;;;;;;4.91;94.35;98313.50;5062749;28;20404;-81
2023/11/19 00:18:22;;;;;;;4.80;3.65;;;;;;;5.00;93.83;98321.91;5071266;28;20089;-81
2023/11/19 00:20:47;;;;;;;3.15;2.75;;;;;;;5.22;92.70;98318.50;5081011;28;20036;-82
2023/11/19 00:23:12;;;;;;;2.65;2.45;;;;;;;5.19;92.05;98297.81;5089350;28;20042;-80
2023/11/19 00:25:38;;;;;;;4.35;3.25;;;;;;;5.40;91.96;98309.69;5086018;28;20029;-81
2023/11/19 00:28:04;;;;;;;5.20;2.90;;;;;;;5.32;92.03;98302.09;5089519;28;20028;-81
2023/11/19 00:30:31;;;;;;;3.35;3.00;;;;;;;5.28;91.58;98300.94;5087417;28;20037;-82
2023/11/19 00:32:56;;;;;;;3.17;2.88;;;;;;;5.13;93.04;98288.13;5085547;28;20115;-81
2023/11/19 00:35:22;;;;;;;3.90;2.95;;;;;;;5.32;92.57;98289.66;5079128;28;20111;-81
2023/11/19 00:37:47;;;;;;;3.25;2.97;;;;;;;5.22;92.72;98289.41;5073288;28;20158;-81
2023/11/19 00:40:13;;;;;;;4.55;3.70;;;;;;;5.09;93.94;98276.38;5048879;28;20105;-81
2023/11/19 00:42:39;;;;;;;4.15;3.00;;;;;;;5.18;93.93;98264.44;5067405;28;20031;-81
2023/11/19 00:45:09;;;;;;;3.17;2.97;;;;;;;5.21;93.14;98263.19;5069615;28;20032;-81
2023/11/19 00:47:35;;;;;;;3.33;3.03;;;;;;;5.14;94.29;98246.59;5079942;28;20073;-81
2023/11/19 00:50:01;;;;;;;3.45;3.15;;;;;;;5.32;93.67;98254.47;5048519;28;20036;-81
2023/11/19 00:52:26;;;;;;;2.88;2.67;;;;;;;5.07;94.83;98254.66;5068349;28;20063;-81
2023/11/19 00:54:51;;;;;;;4.43;2.90;;;;;;;5.01;95.24;98231.75;5078526;28;20028;-81
2023/11/19 00:57:17;;;;;;;3.28;2.92;;;;;;;5.04;95.68;98227.88;5067428;28;21008;-80
2023/11/19 00:59:43;;;;;;;3.03;2.50;;;;;;;5.09;95.50;98228.78;5061528;28;20805;-82
2023/11/19 01:02:08;;;;;;;2.35;2.15;;;;;;;5.03;95.17;98220.94;5070796;28;20115;-81
2023/11/19 01:04:35;;;;;;;3.83;2.95;;;;;;;4.62;99.97;98221.78;5056837;28;20131;-81
2023/11/19 01:07:03;;;;;;;5.95;2.92;;;;;;;5.00;96.64;98203.69;5063938;28;20036;-81
2023/11/19 01:09:32;;;;;;;2.55;2.33;;;;;;;5.05;97.13;98221.53;5082665;28;20035;-81
2023/11/19 01:11:57;;;;;;;2.42;2.22;;;;;;;5.18;94.77;98208.09;5082901;28;20587;-81
2023/11/19 01:14:22;;;;;;;2.38;2.17;;;;;;;5.14;95.17;98212.22;5083438;28;20024;-81
2023/11/19 01:16:48;;;;;;;2.30;2.10;;;;;;;5.09;96.27;98207.63;5063321;28;20036;-81
2023/11/19 01:19:14;;;;;;;1.63;1.52;;;;;;;5.20;95.29;98203.38;5067698;28;20036;-81
2023/11/19 01:21:39;;;;;;;2.10;2.00;;;;;;;5.22;95.14;98198.69;5066086;28;20028;-81
2023/11/19 01:24:09;;;;;;;5.65;1.67;;;;;;;5.14;97.23;98186.59;5088284;28;20170;-81
2023/11/19 01:26:34;;;;;;;2.08;1.90;;;;;;;5.42;94.55;98191.16;5075471;28;20048;-81
2023/11/19 01:29:01;;;;;;;2.65;2.10;;;;;;;5.09;97.44;98185.66;5069323;28;20559;-80
2023/11/19 01:31:26;;;;;;;2.50;2.00;;;;;;;5.25;96.28;98184.97;5071241;28;20032;-81
2023/11/19 01:33:52;;;;;;;2.40;2.20;;;;;;;4.84;100.00;98188.53;5067779;28;20017;-81
2023/11/19 01:36:17;;;;;;;4.18;1.90;;;;;;;5.08;98.91;98182.22;5065689;28;20162;-81
2023/11/19 01:38:43;;;;;;;2.10;1.90;;;;;;;5.15;97.56;98175.00;5075539;28;20046;-82
2023/11/19 01:41:08;;;;;;;2.15;1.83;;;;;;;4.83;99.87;98176.31;5088532;28;20036;-82
2023/11/19 01:43:35;;;;;;;3.35;2.08;;;;;;;4.88;100.00;98176.44;5087039;28;20157;-81
2023/11/19 01:46:03;;;;;;;1.80;1.70;;;;;;;5.01;100.00;98159.56;5078178;28;20059;-81
2023/11/19 01:48:29;;;;;;;2.42;1.98;;;;;;;5.08;99.30;98181.41;5075497;28;20030;-81
2023/11/19 01:50:56;;;;;;;2.20;1.95;;;;;;;5.43;95.74;98174.28;5080625;28;20032;-82
2023/11/19 01:53:22;;;;;;;2.72;1.98;;;;;;;5.29;96.76;98163.13;5082384;28;20111;-81
2023/11/19 01:55:49;;;;;;;1.73;1.63;;;;;;;5.36;95.79;98170.13;5079489;28;20121;-81
2023/11/19 01:58:15;;;;;;;1.45;1.33;;;;;;;5.41;95.65;98162.31;5084953;28;20020;-80
2023/11/19 02:00:41;;;;;;;2.15;1.95;;;;;;;5.10;97.96;98171.41;5086266;28;20036;-81
2023/11/19 02:03:08;;;;;;;2.47;1.88;;;;;;;5.26;96.35;98152.19;5078405;28;20127;-81
2023/11/19 02:05:34;;;;;;;2.60;1.67;;;;;;;5.45;95.33;98148.38;5087531;28;20082;-81
2023/11/19 02:08:00;;;;;;;3.85;1.67;;;;;;;5.49;96.04;98138.13;5080480;28;20039;-81
2023/11/19 02:10:26;;;;;;;1.27;1.17;;;;;;;5.58;95.74;98148.13;5080763;28;20107;-81
2023/11/19 02:12:51;;;;;;;1.40;1.30;;;;;;;5.43;97.04;98136.41;5082935;28;20032;-81
2023/11/19 02:15:19;;;;;;;3.38;1.33;;;;;;;5.61;96.52;98141.56;5079487;28;20461;-81
2023/11/19 02:17:44;;;;;;;1.30;1.20;;;;;;;5.76;94.68;98147.16;5086685;28;20043;-81
2023/11/19 02:20:14;;;;;;;1.40;1.30;;;;;;;5.68;97.10;98144.88;5081937;28;20032;-81
2023/11/19 02:22:40;;;;;;;1.50;1.40;;;;;;;5.76;97.22;98147.16;5113347;27;20043;-82
2023/11/19 02:25:11;;;;;;;1.50;1.40;;;;;;;5.75;98.57;98149.00;5071466;28;20036;-82
2023/11/19 02:27:51;;;;;;;2.28;1.40;;;;;;;5.76;98.82;98137.38;5089489;28;20040;-81
2023/11/19 02:30:16;;;;;;;1.70;1.48;;;;;;;5.78;99.53;98123.91;5083020;28;20027;-82
2023/11/19 02:32:42;;;;;;;1.77;1.67;;;;;;;5.80;98.90;98121.81;5085965;28;20460;-82
2023/11/19 02:35:08;;;;;;;1.77;1.67;;;;;;;5.84;99.44;98099.16;5084869;28;20070;-82
2023/11/19 02:37:34;;;;;;;1.63;1.52;;;;;;;5.82;99.52;98106.50;5083647;28;20056;-82
2023/11/19 02:40:02;;;;;;;3.22;1.60;;;;;;;5.81;100.00;98107.56;5071216;28;20043;-81
2023/11/19 02:42:28;;;;;;;2.00;1.90;;;;;;;5.73;99.97;98092.84;5083365;28;20026;-81
2023/11/19 02:44:53;;;;;;;2.28;1.90;;;;;;;5.96;99.52;98092.75;5085684;28;20028;-81
2023/11/19 02:47:21;;;;;;;1.65;1.55;;;;;;;5.94;98.80;98078.19;5056543;28;20045;-81
2023/11/19 02:49:49;;;;;;;2.60;1.88;;;;;;;5.98;98.65;98082.72;5087672;28;20039;-81
2023/11/19 02:52:14;;;;;;;1.92;1.83;;;;;;;5.88;99.71;98069.31;5091975;28;20028;-81
2023/11/19 02:54:41;;;;;;;1.80;1.70;;;;;;;5.96;99.75;98057.56;5088028;28;20131;-81
2023/11/19 02:57:08;;;;;;;2.53;2.10;;;;;;;5.92;99.73;98062.50;5072061;28;20055;-81
2023/11/19 02:59:38;;;;;;;2.28;2.08;;;;;;;6.03;100.00;98071.44;5085482;28;20055;-81
2023/11/19 03:02:06;;;;;;;2.28;2.15;;;;;;;5.99;100.00;98078.25;5082177;28;20024;-81
2023/11/19 03:04:33;;;;;;;2.65;2.45;;;;;;;6.09;99.95;98072.34;5089045;28;20076;-82
2023/11/19 03:06:58;;;;;;;2.67;2.47;;;;;;;6.12;99.52;98077.94;5084962;28;20067;-81
2023/11/19 03:09:24;;;;;;;3.08;2.83;;;;;;;6.11;100.00;98070.25;5086706;28;22082;-81
2023/11/19 03:11:49;;;;;;;3.17;2.88;;;;;;;6.15;100.00;98068.72;5051262;28;20024;-81
2023/11/19 03:14:15;;;;;;;3.25;2.95;;;;;;;6.14;100.00;98059.97;5067152;28;20032;-81
2023/11/19 03:16:40;;;;;;;3.13;2.83;;;;;;;6.09;100.00;98051.16;5085317;28;20041;-81
2023/11/19 03:19:05;;;;;;;3.10;2.90;;;;;;;6.08;100.00;98055.63;5064083;28;20107;-81
2023/11/19 03:21:31;;;;;;;3.45;3.15;;;;;;;6.13;100.00;98068.97;5064472;28;20111;-81
2023/11/19 03:23:59;;;;;;;3.30;2.92;;;;;;;6.09;100.00;98053.78;5087684;28;20040;-81
2023/11/19 03:26:26;;;;;;;4.07;3.47;;;;;;;6.18;100.00;98033.81;5088773;28;20035;-82
2023/11/19 03:28:51;;;;;;;3.35;3.05;;;;;;;6.17;100.00;98016.28;5088030;28;20038;-81
2023/11/19 03:31:17;;;;;;;4.95;3.65;;;;;;;6.15;100.00;98029.78;5089597;28;20028;-81
2023/11/19 03:33:42;;;;;;;4.45;3.70;;;;;;;6.19;100.00;98022.97;5070617;28;20021;-82
2023/11/19 03:36:09;;;;;;;5.47;3.72;;;;;;;6.18;100.00;98025.88;5063601;28;20039;-81
2023/11/19 03:38:34;;;;;;;4.03;3.63;;;;;;;6.22;100.00;98003.94;5069672;28;20051;-81
2023/11/19 03:41:00;;;;;;;3.53;3.20;;;;;;;6.28;100.00;98007.47;5085544;28;20123;-80
2023/11/19 03:43:25;;;;;;;3.50;3.20;;;;;;;6.18;100.00;98017.91;5065765;28;20400;-81
2023/11/19 03:45:50;;;;;;;3.75;3.35;;;;;;;6.28;100.00;98016.22;5076144;28;20043;-81
2023/11/19 03:48:16;;;;;;;3.90;3.17;;;;;;;6.27;100.00;98029.72;5079635;28;20035;-82
2023/11/19 03:50:41;;;;;;;3.33;3.03;;;;;;;6.29;100.00;98017.81;5077349;28;20032;-81
2023/11/19 03:53:07;;;;;;;3.42;3.08;;;;;;;6.26;100.00;98014.84;5073878;28;20055;-82
2023/11/19 03:55:33;;;;;;;3.88;3.50;;;;;;;6.27;100.00;98011.97;5088560;28;20114;-81
2023/11/19 03:57:58;;;;;;;3.45;3.13;;;;;;;6.33;100.00;98026.91;5072365;28;20035;-81
2023/11/19 04:00:23;;;;;;;6.78;3.60;;;;;;;6.23;100.00;98002.09;5080338;28;20024;-82
2023/11/19 04:02:49;;;;;;;2.42;2.22;;;;;;;6.32;100.00;98005.94;5080310;28;20119;-82
2023/11/19 04:05:14;;;;;;;3.88;3.40;;;;;;;6.34;100.00;98017.91;5071393;28;20384;-81
2023/11/19 04:07:39;;;;;;;3.17;2.88;;;;;;;6.31;100.00;98012.31;5080698;28;20035;-81
2023/11/19 04:10:05;;;;;;;2.83;2.45;;;;;;;6.38;100.00;98024.31;5069894;28;20056;-82
2023/11/19 04:12:31;;;;;;;2.63;2.28;;;;;;;6.45;100.00;98027.63;5090876;28;20020;-81
2023/11/19 04:14:56;;;;;;;3.70;3.40;;;;;;;6.35;100.00;98005.47;5090672;28;20084;-81
2023/11/19 04:17:22;;;;;;;2.47;2.28;;;;;;;6.37;100.00;98001.53;5087931;28;20356;-81
2023/11/19 04:19:48;;;;;;;2.45;2.25;;;;;;;6.43;100.00;98010.34;5065646;28;20430;-81
2023/11/19 04:22:14;;;;;;;2.80;2.45;;;;;;;6.50;100.00;98011.81;5077754;28;20054;-81
2023/11/19 04:24:40;;;;;;;1.90;1.80;;;;;;;6.47;100.00;97998.22;5083666;28;20375;-81
2023/11/19 04:27:06;;;;;;;2.00;1.77;;;;;;;6.47;100.00;98001.69;5081698;28;20020;-81
2023/11/19 04:29:31;;;;;;;1.70;1.60;;;;;;;6.54;100.00;97998.84;5086313;28;20036;-81
2023/11/19 04:31:57;;;;;;;1.63;1.52;;;;;;;6.52;100.00;98001.75;5086735;28;20020;-81
2023/11/19 04:34:22;;;;;;;1.48;1.38;;;;;;;6.54;100.00;97996.22;5083178;28;20071;-81
2023/11/19 04:36:49;;;;;;;1.40;1.30;;;;;;;6.53;100.00;98013.19;5067451;28;20055;-81
2023/11/19 04:39:15;;;;;;;2.88;1.60;;;;;;;6.61;100.00;98023.34;5082152;28;20521;-81
2023/11/19 04:41:53;;;;;;;1.70;1.60;;;;;;;6.52;100.00;98009.72;5082281;28;20032;-81
2023/11/19 04:44:18;;;;;;;2.00;1.70;;;;;;;6.60;100.00;98004.00;5109535;27;20043;-81
2023/11/19 04:46:44;;;;;;;1.92;1.70;;;;;;;6.50;100.00;98000.41;5067482;28;20063;-81
2023/11/19 04:49:13;;;;;;;2.20;2.00;;;;;;;6.53;100.00;98000.69;5086036;28;20056;-81
2023/11/19 04:51:43;;;;;;;3.03;1.83;;;;;;;6.57;100.00;97990.44;5082870;28;20495;-80
2023/11/19 04:54:08;;;;;;;2.15;1.98;;;;;;;6.59;100.00;97999.75;5070178;28;20173;-80
2023/11/19 04:56:36;;;;;;;2.92;2.70;;;;;;;6.62;100.00;98001.09;5085684;28;20119;-81
2023/11/19 04:59:02;;;;;;;4.18;2.40;;;;;;;6.64;100.00;97991.06;5084393;28;20052;-81
2023/11/19 05:01:27;;;;;;;2.80;2.60;;;;;;;6.57;100.00;97983.28;5079280;28;20021;-81
2023/11/19 05:03:52;;;;;;;3.58;3.00;;;;;;;6.58;100.00;97978.75;5085210;28;20038;-81
2023/11/19 05:06:18;;;;;;;3.15;2.85;;;;;;;6.63;100.00;97984.97;5068416;28;20418;-81
2023/11/19 05:08:44;;;;;;;3.30;3.00;;;;;;;6.55;100.00;97966.78;5083862;28;20032;-81
2023/11/19 05:11:12;;;;;;;3.30;3.03;;;;;;;6.58;100.00;97973.47;5080195;28;20036;-81
2023/11/19 05:13:37;;;;;;;3.25;2.95;;;;;;;6.60;100.00;97977.47;5071272;28;20024;-81
2023/11/19 05:16:03;;;;;;;2.85;2.65;;;;;;;6.58;100.00;97962.84;5084945;28;20717;-81
2023/11/19 05:18:29;;;;;;;3.15;2.95;;;;;;;6.54;100.00;97975.00;5081445;28;20113;-81
2023/11/19 05:20:54;;;;;;;3.45;3.15;;;;;;;6.55;100.00;97979.28;5070571;28;20028;-81
2023/11/19 05:23:20;;;;;;;6.43;3.50;;;;;;;6.58;100.00;97976.13;5084594;28;20027;-81
2023/11/19 05:25:45;;;;;;;3.22;2.92;;;;;;;6.44;100.00;97941.22;5068671;28;20397;-82
2023/11/19 05:28:11;;;;;;;3.97;3.03;;;;;;;6.57;100.00;97950.66;5086473;28;20157;-82
2023/11/19 05:30:36;;;;;;;3.53;3.22;;;;;;;6.58;100.00;97955.72;5084840;28;20077;-82
2023/11/19 05:33:01;;;;;;;4.00;3.55;;;;;;;6.63;100.00;97952.34;5083714;28;20027;-81
2023/11/19 05:35:27;;;;;;;4.43;4.00;;;;;;;6.62;100.00;97967.44;5089577;28;20024;-81
2023/11/19 05:37:52;;;;;;;6.13;3.55;;;;;;;6.65;100.00;97972.25;5068308;28;20025;-81
2023/11/19 05:40:20;;;;;;;5.07;4.20;;;;;;;6.71;100.00;97959.84;5081905;28;20124;-81
2023/11/19 05:42:45;;;;;;;7.95;4.20;;;;;;;6.74;100.00;97964.69;5087587;28;20503;-81
2023/11/19 05:45:12;;;;;;;4.28;3.85;;;;;;;6.73;100.00;97994.88;5080136;28;20039;-82
2023/11/19 05:47:37;;;;;;;6.18;3.53;;;;;;;6.74;100.00;97976.09;5094729;28;20024;-82
2023/11/19 05:50:04;;;;;;;5.65;3.97;;;;;;;6.79;100.00;97981.44;5056492;28;20084;-82
2023/11/19 05:52:33;;;;;;;6.43;3.13;;;;;;;6.85;100.00;97977.03;5088292;28;21611;-83
2023/11/19 05:55:09;;;;;;;3.78;2.95;;;;;;;6.82;100.00;97972.19;5085269;28;20032;-82
2023/11/19 05:57:34;;;;;;;;;;;;;;;6.91;100.00;97986.66;5084714;28;20028;-81
2023/11/19 06:00:00;;;;;;;3.10;2.80;;;;;;;6.90;100.00;97990.38;5080574;28;19935;-82
2023/11/19 06:02:27;;;;;;;2.75;2.20;;;;;;;6.92;100.00;97966.25;5083901;28;20162;-82
2023/11/19 06:04:53;;;;;;;3.80;2.03;;;;;;;6.86;100.00;97949.44;5067636;28;20033;-81
2023/11/19 06:07:19;;;;;;;2.08;1.88;;;;;;;6.97;100.00;97961.78;5067880;28;20040;-81
2023/11/19 06:09:45;;;;;;;3.33;2.67;;;;;;;6.94;100.00;97962.28;5076502;28;20036;-81
2023/11/19 06:12:10;;;;;;;3.33;2.28;;;;;;;6.89;100.00;97964.06;5068381;28;20550;-82
2023/11/19 06:14:36;;;;;;;3.72;2.42;;;;;;;6.93;100.00;97973.94;5078654;28;20483;-81
2023/11/19 06:17:01;;;;;;;2.97;2.47;;;;;;;6.95;100.00;97982.44;5072298;28;20759;-81
2023/11/19 06:19:27;;;;;;;4.10;2.72;;;;;;;6.79;100.00;97981.44;5068210;28;20031;-82
2023/11/19 06:21:52;;;;;;;4.47;3.58;;;;;;;6.81;100.00;97978.56;5074375;28;20106;-81
2023/11/19 06:24:17;;;;;;;6.18;3.55;;;;;;;6.79;100.00;97967.41;5076875;28;20040;-81
2023/11/19 06:26:43;;;;;;;7.07;5.30;;;;;;;6.88;100.00;97983.69;5077524;28;20077;-82
2023/11/19 06:29:08;;;;;;;6.00;4.47;;;;;;;6.86;100.00;97988.44;5075871;28;20396;-81
2023/11/19 06:31:34;;;;;;;8.60;4.32;;;;;;;6.81;100.00;97978.56;5082088;28;20060;-81
2023/11/19 06:33:59;;;;;;;8.27;5.50;;;;;;;6.85;100.00;97990.28;5089151;28;20425;-81
2023/11/19 06:36:26;;;;;;;6.60;4.93;;;;;;;6.78;100.00;97992.31;5085069;28;20620;-81
2023/11/19 06:38:52;;;;;;;10.40;5.72;;;;;;;6.77;100.00;97993.38;5089707;28;20056;-81
2023/11/19 06:41:17;;;;;;;7.85;6.13;;;;;;;6.80;100.00;97993.66;5083288;28;20062;-81
2023/11/19 06:43:43;;;;;;;7.38;5.72;;;;;;;6.76;100.00;98003.16;5084061;28;20039;-81
2023/11/19 06:46:18;;;;;;;9.85;6.15;;;;;;;6.68;100.00;97992.19;5081334;28;20028;-81
2023/11/19 06:48:44;;;;;;;13.98;5.85;;;;;;;6.73;100.00;98002.84;5070671;28;20743;-81
2023/11/19 06:51:10;;;;;;;8.80;5.78;;;;;;;6.75;100.00;97993.59;5085174;28;20039;-81
2023/11/19 06:53:36;;;;;;;7.40;5.35;;;;;;;6.80;100.00;97992.88;5080939;28;20032;-81
2023/11/19 06:56:06;;;;;;;20.00;6.10;;;;;;;6.85;100.00;97997.44;5084681;28;20033;-81
2023/11/19 06:58:32;;;;;;;10.77;5.40;;;;;;;6.75;100.00;98000.75;5079693;28;20036;-82
2023/11/19 07:00:57;;;;;;;8.68;5.22;;;;;;;6.62;100.00;97993.94;5086926;28;20039;-82
2023/11/19 07:03:22;;;;;;;11.55;5.95;;;;;;;6.77;100.00;97990.72;5086933;28;20035;-82
2023/11/19 07:05:48;;;;;;;10.18;6.72;;;;;;;6.80;100.00;97988.38;5086305;28;20046;-82
2023/11/19 07:08:14;;;;;;;11.95;5.30;;;;;;;6.77;100.00;97991.50;5081628;28;20020;-81
2023/11/19 07:10:39;;;;;;;10.90;5.75;;;;;;;6.74;100.00;97994.66;5072197;28;20380;-81
2023/11/19 07:13:05;;;;;;;9.25;5.70;;;;;;;6.88;100.00;98005.69;5068410;28;20028;-81
2023/11/19 07:15:32;;;;;;;10.18;5.50;;;;;;;6.76;100.00;97994.41;5084729;28;20043;-81
2023/11/19 07:17:59;;;;;;;7.82;5.50;;;;;;;6.82;100.00;98004.84;5084037;28;20387;-81
2023/11/19 07:20:26;;;;;;;7.32;6.00;;;;;;;6.84;100.00;97993.97;5079856;28;20450;-81
2023/11/19 07:22:52;;;;;;;9.93;6.32;;;;;;;6.89;100.00;97996.69;5064045;28;20020;-81
2023/11/19 07:25:17;;;;;;;16.48;5.85;;;;;;;6.78;100.00;97992.31;5069663;28;20475;-81
2023/11/19 07:27:43;;;;;;;9.80;6.05;;;;;;;6.86;100.00;98001.72;5048418;28;20036;-80
2023/11/19 07:30:08;;;;;;;8.93;6.38;;;;;;;6.82;100.00;97990.75;5085745;28;20031;-81
2023/11/19 07:32:34;;;;;;;8.48;5.97;;;;;;;6.78;100.00;97997.63;5067287;28;20028;-81
2023/11/19 07:34:59;;;;;;;13.15;6.63;;;;;;;6.74;100.00;98004.47;5075866;28;20101;-81
2023/11/19 07:37:25;;;;;;;14.23;6.53;;;;;;;6.72;100.00;97990.63;5086482;28;20399;-80
2023/11/19 07:39:50;;;;;;;17.48;6.68;;;;;;;6.86;100.00;98002.47;5073722;28;20047;-81
2023/11/19 07:42:16;;;;;;;17.23;6.35;;;;;;;6.79;100.00;97991.28;5083640;28;20052;-82
2023/11/19 07:44:41;;;;;;;10.32;5.97;;;;;;;6.77;100.00;98003.97;5087375;28;20119;-81
2023/11/19 07:47:07;;;;;;;8.93;6.35;;;;;;;6.66;100.00;97973.06;5070583;28;20060;-81
2023/11/19 07:49:32;;;;;;;10.68;6.32;;;;;;;6.74;100.00;97999.97;5076591;28;20085;-81
2023/11/19 07:51:58;;;;;;;11.20;6.40;;;;;;;6.70;100.00;97993.53;5080764;28;20511;-81
2023/11/19 07:54:24;;;;;;;12.60;5.53;;;;;;;6.80;100.00;98003.47;5085945;28;20028;-81
2023/11/19 07:56:50;;;;;;;9.10;5.68;;;;;;;6.84;100.00;98004.59;5056248;28;20075;-81
2023/11/19 07:59:15;;;;;;;9.40;5.57;;;;;;;6.86;100.00;97997.19;5069820;28;20514;-81
2023/11/19 08:01:41;;;;;;;10.07;4.95;;;;;;;6.84;100.00;97974.63;5079169;28;20081;-81
2023/11/19 08:04:06;;;;;;;8.65;5.43;;;;;;;6.88;100.00;97981.03;5086026;28;20544;-82
2023/11/19 08:06:32;;;;;;;11.05;5.05;;;;;;;6.94;100.00;97993.31;5054342;28;20028;-81
2023/11/19 08:08:57;;;;;;;13.93;5.22;;;;;;;6.89;100.00;97996.69;5083771;28;20441;-81
2023/11/19 08:11:22;;;;;;;12.35;4.97;;;;;;;7.05;100.00;98005.66;5081833;28;20024;-81
2023/11/19 08:13:48;;;;;;;9.65;4.72;;;;;;;7.04;100.00;98012.81;5068907;28;20031;-81
2023/11/19 08:16:14;;;;;;;13.25;4.20;;;;;;;7.05;100.00;97998.50;5082957;28;20032;-81
2023/11/19 08:18:42;;;;;;;11.43;4.43;;;;;;;7.16;100.00;98013.50;5068806;28;20032;-81
2023/11/19 08:21:08;;;;;;;12.02;4.75;;;;;;;7.25;100.00;98013.88;5088262;28;20035;-81
2023/11/19 08:23:34;;;;;;;11.10;5.15;;;;;;;7.29;100.00;98015.00;5084279;28;20035;-81
2023/11/19 08:25:59;;;;;;;13.20;4.50;;;;;;;7.33;100.00;98024.88;5084811;28;20024;-81
2023/11/19 08:28:25;;;;;;;9.80;4.85;;;;;;;7.53;100.00;98017.09;5079758;28;20032;-82
2023/11/19 08:30:50;;;;;;;13.70;5.85;;;;;;;7.63;100.00;98018.28;5070486;28;20044;-82
2023/11/19 08:33:16;;;;;;;12.13;4.88;;;;;;;7.73;100.00;98037.81;5080001;28;20044;-82
2023/11/19 08:35:42;;;;;;;7.72;4.35;;;;;;;7.69;100.00;98034.00;5083996;28;20063;-82
2023/11/19 08:38:10;;;;;;;8.52;4.53;;;;;;;7.71;100.00;98031.13;5071521;28;20059;-84
2023/11/19 08:40:35;;;;;;;12.63;4.65;;;;;;;7.77;100.00;98032.78;5091189;28;20032;-82
2023/11/19 08:43:00;;;;;;;14.68;4.47;;;;;;;7.75;100.00;98054.28;5082885;28;20537;-82
2023/11/19 08:45:26;;;;;;;20.98;4.25;;;;;;;7.77;100.00;98040.75;5082172;28;20506;-82
2023/11/19 08:47:51;;;;;;;7.45;4.15;;;;;;;7.74;100.00;98035.91;5082171;28;20119;-82
2023/11/19 08:50:16;;;;;;;16.42;4.88;;;;;;;7.69;99.73;98038.53;5089980;28;20020;-82
2023/11/19 08:52:42;;;;;;;15.13;4.38;;;;;;;7.81;100.00;98052.47;5077181;28;20024;-81
2023/11/19 08:55:09;;;;;;;11.32;4.07;;;;;;;7.81;99.20;98057.78;5053528;28;20028;-81
2023/11/19 08:57:35;;;;;;;17.05;4.28;;;;;;;7.88;99.46;98045.13;5084678;28;20028;-82
2023/11/19 09:00:00;;;;;;;13.40;4.82;;;;;;;7.98;99.75;98046.00;5082184;28;20031;-82
2023/11/19 09:02:26;;;;;;;17.27;5.03;;;;;;;8.00;99.57;98051.06;5085201;28;20024;-82
2023/11/19 09:04:51;;;;;;;12.80;4.32;;;;;;;8.02;99.79;98048.94;5080214;28;20516;-82
2023/11/19 09:07:17;;;;;;;15.15;4.43;;;;;;;7.96;100.00;98039.34;5077353;28;20020;-82
2023/11/19 09:09:42;;;;;;;7.18;4.43;;;;;;;8.10;100.00;98056.50;5084146;28;20042;-82
2023/11/19 09:12:08;;;;;;;17.55;5.25;;;;;;;8.21;100.00;98064.28;5063237;28;20052;-81
2023/11/19 09:14:33;;;;;;;17.70;6.05;;;;;;;8.33;99.77;98066.81;5072367;28;20503;-82
2023/11/19 09:16:59;;;;;;;15.63;4.50;;;;;;;8.24;100.00;98060.31;5077014;28;20036;-81
2023/11/19 09:19:29;;;;;;;11.88;3.95;;;;;;;8.32;99.93;98062.56;5092436;28;20031;-82
2023/11/19 09:21:54;;;;;;;13.90;4.18;;;;;;;8.24;100.00;98041.72;5079251;28;20115;-81
2023/11/19 09:24:19;;;;;;;21.08;4.97;;;;;;;8.37;99.30;98064.44;5063002;28;21066;-81
2023/11/19 09:26:45;;;;;;;15.98;4.50;;;;;;;8.29;99.17;98060.41;5074421;28;20036;-81
2023/11/19 09:29:11;;;;;;;11.23;3.55;;;;;;;8.18;99.27;98062.16;5073812;28;20089;-82
2023/11/19 09:31:38;;;;;;;11.15;3.88;;;;;;;8.18;99.23;98059.50;5078780;28;20373;-82
2023/11/19 09:34:03;;;;;;;15.25;4.18;;;;;;;8.22;98.80;98059.78;5073197;28;20068;-82
2023/11/19 09:36:28;;;;;;;17.90;4.50;;;;;;;8.12;98.82;98065.81;5066619;28;20574;-81
2023/11/19 09:38:54;;;;;;;16.60;4.75;;;;;;;8.21;98.99;98069.59;5069554;28;20051;-81
2023/11/19 09:41:19;;;;;;;12.60;4.05;;;;;;;8.22;98.83;98059.78;5067064;28;20036;-81
2023/11/19 09:43:45;;;;;;;27.35;5.35;;;;;;;8.30;97.53;98069.97;5078428;28;20040;-81
2023/11/19 09:46:11;;;;;;;24.17;7.47;;;;;;;8.38;97.09;98076.69;5079331;28;21797;-81
2023/11/19 09:48:38;;;;;;;23.80;4.90;;;;;;;8.37;97.02;98075.09;5073901;28;20074;-82
2023/11/19 09:51:07;;;;;;;21.88;5.25;;;;;;;8.38;96.49;98074.03;5090115;28;20025;-82
2023/11/19 09:53:34;;;;;;;20.67;5.20;;;;;;;8.50;95.32;98075.47;5083440;28;20027;-82
2023/11/19 09:56:07;;;;;;;23.05;5.07;;;;;;;8.49;95.30;98062.44;5085145;28;20070;-82
2023/11/19 09:58:33;;;;;;;21.40;4.80;;;;;;;8.61;94.31;98063.06;5089044;28;20077;-83
2023/11/19 10:01:00;;;;;;;26.45;6.78;;;;;;;8.56;94.34;98074.44;5086372;28;20024;-82
2023/11/19 10:03:34;;;;;;;23.90;6.13;;;;;;;8.59;93.59;98078.47;5068997;28;20020;-82
2023/11/19 10:06:01;;;;;;;32.10;9.10;;;;;;;8.61;93.86;98074.50;5091275;28;20085;-82
2023/11/19 10:08:26;;;;;;;22.13;8.35;;;;;;;8.56;93.06;98077.13;5089790;28;20024;-82
2023/11/19 10:10:52;;;;;;;33.40;9.38;;;;;;;8.63;93.20;98084.88;5082465;28;20097;-83
2023/11/19 10:13:17;;;;;;;28.85;7.45;;;;;;;8.56;93.92;98077.13;5083927;28;20114;-82
2023/11/19 10:15:43;;;;;;;17.52;6.85;;;;;;;8.66;93.14;98079.88;5049305;28;20059;-82
2023/11/19 10:18:09;;;;;;;22.65;5.15;;;;;;;8.65;92.54;98075.59;5068930;28;20032;-82
2023/11/19 10:20:40;;;;;;;23.52;5.72;;;;;;;8.58;92.89;98063.59;5079354;28;20071;-82
2023/11/19 10:23:05;;;;;;;28.60;6.35;;;;;;;8.57;91.83;98062.78;5085579;28;20058;-81
2023/11/19 10:25:33;;;;;;;20.83;6.13;;;;;;;8.63;91.79;98052.97;5079186;28;20491;-81
2023/11/19 10:27:58;;;;;;;25.13;5.13;;;;;;;8.67;91.83;98064.72;5084694;28;20028;-82
2023/11/19 10:30:26;;;;;;;20.30;5.85;;;;;;;8.73;91.24;98074.31;5063372;28;20040;-82
2023/11/19 10:33:15;;;;;;;27.75;6.00;;;;;;;8.80;90.90;98067.72;5089506;28;20467;-82
2023/11/19 10:35:53;;;;;;;37.83;6.82;;;;;;;8.79;90.77;98052.03;5089673;28;20035;-82
2023/11/19 10:38:18;;;;;;;24.30;5.45;;;;;;;8.93;90.88;98069.94;5084193;28;20102;-82
2023/11/19 10:40:44;;;;;;;15.73;4.63;;;;;;;8.94;89.77;98063.56;5082442;28;20064;-82
2023/11/19 10:43:10;;;;;;;22.15;4.72;;;;;;;8.91;89.80;98063.28;5084409;28;20032;-82
2023/11/19 10:45:37;;;;;;;29.35;6.32;;;;;;;8.89;89.53;98071.50;5087156;28;20024;-82
2023/11/19 10:48:06;;;;;;;23.27;5.93;;;;;;;8.81;90.32;98058.69;5083362;28;20123;-82
2023/11/19 10:50:33;;;;;;;21.38;5.72;;;;;;;8.90;90.34;98067.00;5083686;28;20032;-82
2023/11/19 10:52:59;;;;;;;29.08;6.05;;;;;;;8.93;89.66;98063.84;5087946;28;20107;-82
2023/11/19 10:55:30;;;;;;;25.50;10.07;;;;;;;8.94;89.79;98058.25;5082109;28;20119;-82
2023/11/19 10:58:01;;;;;;;29.73;9.05;;;;;;;9.15;87.83;98063.69;5083907;28;20480;-82
2023/11/19 11:00:31;;;;;;;33.00;10.25;;;;;;;9.35;87.24;98058.47;5086202;28;20105;-82
2023/11/19 11:03:01;;;;;;;35.20;7.97;;;;;;;9.30;86.61;98061.91;5066199;28;20036;-82
2023/11/19 11:05:26;;;;;;;18.08;5.45;;;;;;;9.39;85.27;98049.69;5082896;28;20035;-82
2023/11/19 11:07:55;;;;;;;25.10;5.70;;;;;;;9.52;85.43;98043.09;5053483;28;20032;-82
2023/11/19 11:10:25;;;;;;;30.85;6.13;;;;;;;9.57;84.79;98046.56;5094932;28;20032;-82
2023/11/19 11:12:57;;;;;;;19.83;5.70;;;;;;;9.53;83.75;98037.50;5084088;28;20035;-81
2023/11/19 11:15:27;;;;;;;23.42;5.45;;;;;;;9.52;84.21;98043.88;5063831;28;20055;-81
2023/11/19 11:18:04;;;;;;;24.55;5.95;;;;;;;9.66;83.70;98054.84;5079836;28;20048;-82
2023/11/19 11:20:31;;;;;;;33.67;6.63;;;;;;;9.55;83.38;98047.88;5082254;28;20028;-82
2023/11/19 11:23:31;;;;;;;25.85;5.78;;;;;;;9.50;83.75;98063.88;5080510;28;20089;-83
2023/11/19 11:26:05;;;;;;;36.60;7.50;;;;;;;9.40;84.34;98047.81;5078076;28;20499;-83
2023/11/19 11:28:34;;;;;;;33.45;6.30;;;;;;;9.49;83.48;98056.91;5078362;28;20117;-82
2023/11/19 11:31:11;;;;;;;32.22;5.97;;;;;;;9.50;84.06;98063.88;5081375;28;20089;-82